createdAt,value
2023-02-21T00:01:59.813Z,8.40
2023-02-21T00:04:45.068Z,8.40
2023-02-21T00:07:30.206Z,8.40
2023-02-21T00:10:15.277Z,8.40
2023-02-21T00:13:00.815Z,8.40
2023-02-21T00:15:46.533Z,8.40
2023-02-21T00:18:32.008Z,8.30
2023-02-21T00:21:17.146Z,8.30
2023-02-21T00:24:02.445Z,8.30
2023-02-21T00:26:48.046Z,8.30
2023-02-21T00:29:33.840Z,8.20
2023-02-21T00:32:19.296Z,8.20
2023-02-21T00:35:04.581Z,8.20
2023-02-21T00:37:49.667Z,8.20
2023-02-21T00:40:35.102Z,8.20
2023-02-21T00:43:20.882Z,8.20
2023-02-21T00:46:06.134Z,8.20
2023-02-21T00:48:51.595Z,8.20
2023-02-21T00:51:37.050Z,8.20
2023-02-21T00:54:22.771Z,8.20
2023-02-21T00:57:08.150Z,8.20
2023-02-21T00:59:53.365Z,8.20
2023-02-21T01:02:39.064Z,8.20
2023-02-21T01:05:24.863Z,8.20
2023-02-21T01:08:10.383Z,8.20
2023-02-21T01:10:55.442Z,8.20
2023-02-21T01:13:40.864Z,8.20
2023-02-21T01:16:26.362Z,8.30
2023-02-21T01:19:11.789Z,8.30
2023-02-21T01:21:57.294Z,8.30
2023-02-21T01:24:42.625Z,8.20
2023-02-21T01:27:28.103Z,8.20
2023-02-21T01:30:13.540Z,8.30
2023-02-21T01:32:58.806Z,8.30
2023-02-21T01:35:44.227Z,8.30
2023-02-21T01:38:29.616Z,8.20
2023-02-21T01:41:15.323Z,8.20
2023-02-21T01:44:25.332Z,8.30
2023-02-21T01:47:10.596Z,8.30
2023-02-21T01:49:58.231Z,8.30
2023-02-21T01:52:44.292Z,8.20
2023-02-21T01:55:29.992Z,8.20
2023-02-21T01:58:15.193Z,8.30
2023-02-21T02:01:00.804Z,8.30
2023-02-21T02:03:46.267Z,8.30
2023-02-21T02:06:33.782Z,8.30
2023-02-21T02:09:38.879Z,8.30
2023-02-21T02:12:24.952Z,8.30
2023-02-21T02:14:55.841Z,8.30
2023-02-21T02:17:22.464Z,8.30
2023-02-21T02:20:07.651Z,8.20
2023-02-21T02:22:46.498Z,8.20
2023-02-21T02:25:28.340Z,8.30
2023-02-21T02:28:38.715Z,8.20
2023-02-21T02:31:15.216Z,8.20
2023-02-21T02:34:19.484Z,8.20
2023-02-21T02:37:30.270Z,8.20
2023-02-21T02:40:08.964Z,8.30
2023-02-21T02:42:41.647Z,8.30
2023-02-21T02:45:18.527Z,8.30
2023-02-21T02:47:49.991Z,8.30
2023-02-21T02:50:17.189Z,8.30
2023-02-21T02:52:52.167Z,8.40
2023-02-21T02:55:42.099Z,8.40
2023-02-21T02:58:11.086Z,8.40
2023-02-21T03:00:41.080Z,8.40
2023-02-21T03:03:45.206Z,8.40
2023-02-21T03:06:17.657Z,8.50
2023-02-21T03:09:02.792Z,8.50
2023-02-21T03:11:30.158Z,8.50
2023-02-21T03:14:10.256Z,8.50
2023-02-21T03:16:43.677Z,8.50
2023-02-21T03:19:32.947Z,8.50
2023-02-21T03:22:02.787Z,8.50
2023-02-21T03:24:29.926Z,8.40
2023-02-21T03:27:05.622Z,8.40
2023-02-21T03:29:34.008Z,8.40
2023-02-21T03:32:12.445Z,8.40
2023-02-21T03:34:41.044Z,8.40
2023-02-21T03:37:10.206Z,8.50
2023-02-21T03:39:36.965Z,8.50
2023-02-21T03:42:03.739Z,8.40
2023-02-21T03:44:30.389Z,8.40
2023-02-21T03:46:57.044Z,8.40
2023-02-21T03:49:23.742Z,8.40
2023-02-21T03:51:50.389Z,8.40
2023-02-21T03:54:17.233Z,8.40
2023-02-21T03:56:43.981Z,8.40
2023-02-21T03:59:10.718Z,8.40
2023-02-21T04:01:37.401Z,8.30
2023-02-21T04:04:04.122Z,8.40
2023-02-21T04:06:30.760Z,8.30
2023-02-21T04:08:57.426Z,8.30
2023-02-21T04:11:24.125Z,8.30
2023-02-21T04:13:50.793Z,8.40
2023-02-21T04:16:17.646Z,8.30
2023-02-21T04:18:44.376Z,8.30
2023-02-21T04:21:11.061Z,8.30
2023-02-21T04:23:37.675Z,8.30
2023-02-21T04:26:04.386Z,8.30
2023-02-21T04:28:31.091Z,8.20
2023-02-21T04:30:57.720Z,8.20
2023-02-21T04:33:24.427Z,8.20
2023-02-21T04:35:51.203Z,8.20
2023-02-21T04:38:18.054Z,8.20
2023-02-21T04:40:44.803Z,8.10
2023-02-21T04:43:11.486Z,8.10
2023-02-21T04:45:38.121Z,8.10
2023-02-21T04:48:05.064Z,8.10
2023-02-21T04:50:31.842Z,8.10
2023-02-21T04:52:58.467Z,8.00
2023-02-21T04:55:25.301Z,8.10
2023-02-21T04:57:52.051Z,8.10
2023-02-21T05:00:18.932Z,8.00
2023-02-21T05:02:46.928Z,8.00
2023-02-21T05:05:13.963Z,8.00
2023-02-21T05:07:44.038Z,8.00
2023-02-21T05:10:11.699Z,8.00
2023-02-21T05:12:41.400Z,8.10
2023-02-21T05:15:08.941Z,8.00
2023-02-21T05:17:35.949Z,8.10
2023-02-21T05:20:03.840Z,8.10
2023-02-21T05:22:30.512Z,8.10
2023-02-21T05:24:57.161Z,8.10
2023-02-21T05:27:23.853Z,8.10
2023-02-21T05:29:52.073Z,8.20
2023-02-21T05:32:21.024Z,8.10
2023-02-21T05:34:47.935Z,8.10
2023-02-21T05:37:15.451Z,8.10
2023-02-21T05:39:42.244Z,8.20
2023-02-21T05:42:09.170Z,8.20
2023-02-21T05:44:36.062Z,8.20
2023-02-21T05:47:02.838Z,8.20
2023-02-21T05:49:29.524Z,8.20
2023-02-21T05:51:56.248Z,8.20
2023-02-21T05:54:23.064Z,8.20
2023-02-21T05:56:50.862Z,8.20
2023-02-21T05:59:20.324Z,8.20
2023-02-21T06:01:48.179Z,8.20
2023-02-21T06:04:15.004Z,8.10
2023-02-21T06:06:41.667Z,8.10
2023-02-21T06:09:08.830Z,8.10
2023-02-21T06:11:37.714Z,8.10
2023-02-21T06:14:23.937Z,8.10
2023-02-21T06:16:50.574Z,8.10
2023-02-21T06:19:18.746Z,8.10
2023-02-21T06:21:46.340Z,8.10
2023-02-21T06:24:13.261Z,8.10
2023-02-21T06:26:42.298Z,8.10
2023-02-21T06:29:10.452Z,8.00
2023-02-21T06:31:37.384Z,8.00
2023-02-21T06:34:04.441Z,8.00
2023-02-21T06:36:31.274Z,8.00
2023-02-21T06:38:58.083Z,8.00
2023-02-21T06:41:27.792Z,8.00
2023-02-21T06:43:56.088Z,8.00
2023-02-21T06:46:24.965Z,8.00
2023-02-21T06:48:52.248Z,8.00
2023-02-21T06:51:19.105Z,8.00
2023-02-21T06:53:49.634Z,8.00
2023-02-21T06:56:16.338Z,8.10
2023-02-21T06:58:43.210Z,8.10
2023-02-21T07:01:10.108Z,8.20
2023-02-21T07:03:44.266Z,8.20
2023-02-21T07:06:10.980Z,8.30
2023-02-21T07:08:37.706Z,8.30
2023-02-21T07:11:05.721Z,8.40
2023-02-21T07:13:32.972Z,8.50
2023-02-21T07:16:00.333Z,8.60
2023-02-21T07:18:27.311Z,8.70
2023-02-21T07:20:53.998Z,8.80
2023-02-21T07:23:20.657Z,8.90
2023-02-21T07:25:47.308Z,9.00
2023-02-21T07:28:14.013Z,9.10
2023-02-21T07:30:40.795Z,9.20
2023-02-21T07:33:07.514Z,9.30
2023-02-21T07:35:34.880Z,9.40
2023-02-21T07:38:01.581Z,9.40
2023-02-21T07:40:28.244Z,9.50
2023-02-21T07:42:55.253Z,9.60
2023-02-21T07:45:21.952Z,9.70
2023-02-21T07:47:51.004Z,9.80
2023-02-21T07:50:17.765Z,9.80
2023-02-21T07:52:45.905Z,9.90
2023-02-21T07:55:13.445Z,10.00
2023-02-21T07:57:40.112Z,10.10
2023-02-21T08:00:07.385Z,10.20
2023-02-21T08:02:34.058Z,10.30
2023-02-21T08:05:00.758Z,10.40
2023-02-21T08:07:27.591Z,10.40
2023-02-21T08:09:54.266Z,10.50
2023-02-21T08:12:20.873Z,10.60
2023-02-21T08:14:47.512Z,10.60
2023-02-21T08:17:14.165Z,10.60
2023-02-21T08:19:40.898Z,10.70
2023-02-21T08:22:07.545Z,10.70
2023-02-21T08:24:34.302Z,10.70
2023-02-21T08:27:00.961Z,10.70
2023-02-21T08:29:28.496Z,10.70
2023-02-21T08:31:55.180Z,10.70
2023-02-21T08:34:21.876Z,10.80
2023-02-21T08:36:48.500Z,10.80
2023-02-21T08:39:15.429Z,10.80
2023-02-21T08:41:48.369Z,10.80
2023-02-21T08:44:16.535Z,10.90
2023-02-21T08:46:43.581Z,11.00
2023-02-21T08:49:10.764Z,11.00
2023-02-21T08:51:37.631Z,11.00
2023-02-21T08:54:04.580Z,11.10
2023-02-21T08:56:31.705Z,11.10
2023-02-21T08:58:58.697Z,11.20
2023-02-21T09:01:31.886Z,11.30
2023-02-21T09:03:58.592Z,11.30
2023-02-21T09:06:25.229Z,11.40
2023-02-21T09:08:51.860Z,11.50
2023-02-21T09:11:18.516Z,11.50
2023-02-21T09:13:45.216Z,11.50
2023-02-21T09:16:11.891Z,11.50
2023-02-21T09:18:38.636Z,11.50
2023-02-21T09:21:06.695Z,11.50
2023-02-21T09:23:33.448Z,11.50
2023-02-21T09:26:00.461Z,11.60
2023-02-21T09:28:29.261Z,11.60
2023-02-21T09:30:55.991Z,11.70
2023-02-21T09:33:24.807Z,11.80
2023-02-21T09:35:51.996Z,11.90
2023-02-21T09:38:18.794Z,12.00
2023-02-21T09:40:51.701Z,12.10
2023-02-21T09:43:28.928Z,12.10
2023-02-21T09:45:59.085Z,12.20
2023-02-21T09:48:26.851Z,12.30
2023-02-21T09:51:03.241Z,12.30
2023-02-21T09:53:33.710Z,12.40
2023-02-21T09:56:11.216Z,12.40
2023-02-21T09:58:43.380Z,12.50
2023-02-21T10:01:36.179Z,12.60
2023-02-21T10:04:45.634Z,12.70
2023-02-21T10:07:24.277Z,12.70
2023-02-21T10:09:59.811Z,12.80
2023-02-21T10:12:38.392Z,12.80
2023-02-21T10:15:20.306Z,12.90
2023-02-21T10:18:07.910Z,12.90
2023-02-21T10:20:50.564Z,12.90
2023-02-21T10:23:22.565Z,12.90
2023-02-21T10:25:53.340Z,12.90
2023-02-21T10:28:25.300Z,12.90
2023-02-21T10:30:55.373Z,12.80
2023-02-21T10:33:22.068Z,12.80
2023-02-21T10:35:49.048Z,12.70
2023-02-21T10:38:27.297Z,12.70
2023-02-21T10:40:57.878Z,12.80
2023-02-21T10:43:37.702Z,12.70
2023-02-21T10:46:14.052Z,12.70
2023-02-21T10:48:41.890Z,12.70
2023-02-21T10:51:14.905Z,12.70
2023-02-21T10:53:44.083Z,12.70
2023-02-21T10:56:21.596Z,12.80
2023-02-21T10:59:01.918Z,12.80
2023-02-21T11:01:31.385Z,12.80
2023-02-21T11:04:05.141Z,12.80
2023-02-21T11:06:33.431Z,12.80
2023-02-21T11:09:01.029Z,12.80
2023-02-21T11:11:37.262Z,12.80
2023-02-21T11:14:24.877Z,12.80
2023-02-21T11:38:10.425Z,13.00
2023-02-21T11:49:08.550Z,13.10
2023-02-21T11:51:48.760Z,13.20
2023-02-21T11:54:15.764Z,13.30
2023-02-21T11:56:52.571Z,13.40
2023-02-21T11:59:45.187Z,13.40
2023-02-21T12:02:38.097Z,13.50
2023-02-21T12:05:25.331Z,13.50
2023-02-21T12:08:16.729Z,13.60
2023-02-21T12:11:00.348Z,13.60
2023-02-21T12:13:54.812Z,13.70
2023-02-21T12:16:44.631Z,13.70
2023-02-21T12:19:38.852Z,13.80
2023-02-21T12:22:19.952Z,13.80
2023-02-21T12:24:55.833Z,13.90
2023-02-21T12:27:44.985Z,13.90
2023-02-21T12:30:37.403Z,14.00
2023-02-21T12:33:29.040Z,14.00
2023-02-21T12:36:15.586Z,14.10
2023-02-21T12:39:00.771Z,14.10
2023-02-21T12:41:53.591Z,14.10
2023-02-21T12:44:38.996Z,14.10
2023-02-21T12:47:25.487Z,14.10
2023-02-21T12:49:55.393Z,14.20
2023-02-21T12:52:41.144Z,14.20
2023-02-21T12:55:21.292Z,14.20
2023-02-21T12:58:16.975Z,14.20
2023-02-21T13:00:49.817Z,14.30
2023-02-21T13:03:44.822Z,14.30
2023-02-21T13:06:19.935Z,14.40
2023-02-21T13:08:59.412Z,14.40
2023-02-21T13:12:18.143Z,14.40
2023-02-21T13:14:53.139Z,14.40
2023-02-21T13:17:20.360Z,14.40
2023-02-21T13:19:56.052Z,14.40
2023-02-21T13:22:41.508Z,14.40
2023-02-21T13:25:23.086Z,14.40
2023-02-21T13:28:10.396Z,14.40
2023-02-21T13:30:46.363Z,14.30
2023-02-21T13:33:36.053Z,14.30
2023-02-21T13:36:02.810Z,14.20
2023-02-21T13:38:31.377Z,14.20
2023-02-21T13:41:09.859Z,14.20
2023-02-21T13:43:38.127Z,14.10
2023-02-21T13:46:30.409Z,14.10
2023-02-21T13:49:34.546Z,14.00
2023-02-21T13:52:24.276Z,13.90
2023-02-21T13:55:09.424Z,13.90
2023-02-21T13:57:38.785Z,13.80
2023-02-21T14:00:40.551Z,13.80
2023-02-21T14:03:07.431Z,13.70
2023-02-21T14:05:57.037Z,13.70
2023-02-21T14:08:42.652Z,13.70
2023-02-21T14:11:12.889Z,13.60
2023-02-21T14:13:57.200Z,13.60
2023-02-21T14:16:44.561Z,13.60
2023-02-21T14:19:17.810Z,13.50
2023-02-21T14:21:51.584Z,13.40
2023-02-21T14:24:28.154Z,13.40
2023-02-21T14:27:07.440Z,13.40
2023-02-21T14:29:59.238Z,13.30
2023-02-21T14:32:31.289Z,13.20
2023-02-21T14:34:59.364Z,13.20
2023-02-21T14:37:44.421Z,13.10
2023-02-21T14:40:34.886Z,13.10
2023-02-21T14:43:24.482Z,13.10
2023-02-21T14:46:24.272Z,13.10
2023-02-21T14:49:10.004Z,13.00
2023-02-21T14:52:02.606Z,13.00
2023-02-21T14:55:01.369Z,13.00
2023-02-21T14:57:39.721Z,12.90
2023-02-21T15:00:16.257Z,12.90
2023-02-21T15:02:56.352Z,12.90
2023-02-21T15:05:38.384Z,12.80
2023-02-21T15:08:12.913Z,12.80
2023-02-21T15:10:47.791Z,12.90
2023-02-21T15:13:23.192Z,12.80
2023-02-21T15:15:58.951Z,12.80
2023-02-21T15:18:25.634Z,12.80
2023-02-21T15:21:10.179Z,12.70
2023-02-21T15:24:00.401Z,12.70
2023-02-21T15:26:31.045Z,12.60
2023-02-21T15:29:08.640Z,12.60
2023-02-21T15:31:49.490Z,12.50
2023-02-21T15:34:40.009Z,12.50
2023-02-21T15:37:29.427Z,12.40
2023-02-21T15:40:00.156Z,12.40
2023-02-21T15:42:28.391Z,12.30
2023-02-21T15:45:05.199Z,12.30
2023-02-21T15:47:34.084Z,12.30
2023-02-21T15:50:09.082Z,12.30
2023-02-21T15:52:46.180Z,12.30
2023-02-21T15:55:33.184Z,12.20
2023-02-21T15:58:07.503Z,12.20
2023-02-21T16:00:36.539Z,12.10
2023-02-21T16:03:28.256Z,12.00
2023-02-21T16:06:16.063Z,12.00
2023-02-21T16:09:04.329Z,11.90
2023-02-21T16:11:49.614Z,11.80
2023-02-21T16:14:26.860Z,11.90
2023-02-21T16:17:24.635Z,11.80
2023-02-21T16:19:54.607Z,11.80
2023-02-21T16:22:21.217Z,11.80
2023-02-21T16:24:47.876Z,11.70
2023-02-21T16:27:19.032Z,11.70
2023-02-21T16:29:45.686Z,11.70
2023-02-21T16:32:19.418Z,11.70
2023-02-21T16:34:46.562Z,11.70
2023-02-21T16:37:14.513Z,11.70
2023-02-21T16:39:41.780Z,11.60
2023-02-21T16:42:08.887Z,11.50
2023-02-21T16:44:35.583Z,11.50
2023-02-21T16:47:02.309Z,11.40
2023-02-21T16:49:29.545Z,11.30
2023-02-21T16:51:56.210Z,11.20
2023-02-21T16:54:22.895Z,11.20
2023-02-21T16:56:51.914Z,11.10
2023-02-21T16:59:21.857Z,11.00
2023-02-21T17:01:48.643Z,11.00
2023-02-21T17:04:24.030Z,10.90
2023-02-21T17:06:54.866Z,10.80
2023-02-21T17:09:24.057Z,10.70
2023-02-21T17:11:50.863Z,10.60
2023-02-21T17:14:17.691Z,10.50
2023-02-21T17:16:47.188Z,10.40
2023-02-21T17:19:16.670Z,10.30
2023-02-21T17:21:43.745Z,10.20
2023-02-21T17:24:12.482Z,10.10
2023-02-21T17:26:39.906Z,10.00
2023-02-21T17:29:06.662Z,10.00
2023-02-21T17:31:33.745Z,9.90
2023-02-21T17:34:00.613Z,9.80
2023-02-21T17:36:28.262Z,9.80
2023-02-21T17:38:56.673Z,9.70
2023-02-21T17:41:25.287Z,9.60
2023-02-21T17:43:51.975Z,9.60
2023-02-21T17:46:19.415Z,9.50
2023-02-21T17:48:46.172Z,9.50
2023-02-21T17:51:24.242Z,9.40
2023-02-21T17:53:51.863Z,9.40
2023-02-21T17:56:20.605Z,9.30
2023-02-21T17:58:47.817Z,9.30
2023-02-21T18:01:16.523Z,9.20
2023-02-21T18:03:43.345Z,9.20
2023-02-21T18:06:10.114Z,9.10
2023-02-21T18:08:36.808Z,9.10
2023-02-21T18:11:03.520Z,9.00
2023-02-21T18:13:30.166Z,9.00
2023-02-21T18:15:56.949Z,9.00
2023-02-21T18:18:23.668Z,8.90
2023-02-21T18:20:50.369Z,8.90
2023-02-21T18:23:17.144Z,8.80
2023-02-21T18:25:44.402Z,8.80
2023-02-21T18:28:11.061Z,8.80
2023-02-21T18:30:37.760Z,8.70
2023-02-21T18:33:04.560Z,8.70
2023-02-21T18:35:31.208Z,8.70
2023-02-21T18:37:57.894Z,8.70
2023-02-21T18:40:34.118Z,8.70
2023-02-21T18:43:05.976Z,8.60
2023-02-21T18:45:34.143Z,8.60
2023-02-21T18:48:01.671Z,8.60
2023-02-21T18:50:28.390Z,8.60
2023-02-21T18:52:55.121Z,8.60
2023-02-21T18:55:21.843Z,8.60
2023-02-21T18:57:48.525Z,8.50
2023-02-21T19:00:18.110Z,8.50
2023-02-21T19:02:44.788Z,8.50
2023-02-21T19:05:16.575Z,8.50
2023-02-21T19:07:43.543Z,8.40
2023-02-21T19:10:11.428Z,8.40
2023-02-21T19:12:38.052Z,8.40
2023-02-21T19:15:05.328Z,8.30
2023-02-21T19:17:32.014Z,8.40
2023-02-21T19:19:58.750Z,8.30
2023-02-21T19:22:25.405Z,8.30
2023-02-21T19:24:52.104Z,8.30
2023-02-21T19:27:18.821Z,8.30
2023-02-21T19:29:45.491Z,8.30
2023-02-21T19:32:12.306Z,8.30
2023-02-21T19:34:39.087Z,8.20
2023-02-21T19:37:05.865Z,8.20
2023-02-21T19:39:32.564Z,8.20
2023-02-21T19:41:59.206Z,8.20
2023-02-21T19:44:25.899Z,8.10
2023-02-21T19:46:52.607Z,8.20
2023-02-21T19:49:20.622Z,8.10
2023-02-21T19:51:49.949Z,8.10
2023-02-21T19:54:18.582Z,8.10
2023-02-21T19:56:46.867Z,8.00
2023-02-21T19:59:13.722Z,8.00
2023-02-21T20:01:40.487Z,8.00
2023-02-21T20:04:07.763Z,8.00
2023-02-21T20:06:36.144Z,8.00
2023-02-21T20:09:04.451Z,7.90
2023-02-21T20:11:31.098Z,7.90
2023-02-21T20:13:58.368Z,7.90
2023-02-21T20:16:25.920Z,7.90
2023-02-21T20:18:54.208Z,7.90
2023-02-21T20:21:22.857Z,7.90
2023-02-21T20:23:49.637Z,7.90
2023-02-21T20:26:16.580Z,7.90
2023-02-21T20:28:43.250Z,7.90
2023-02-21T20:31:11.237Z,7.90
2023-02-21T20:33:38.584Z,7.90
2023-02-21T20:36:05.780Z,7.90
2023-02-21T20:38:32.457Z,7.90
2023-02-21T20:41:00.156Z,7.80
2023-02-21T20:43:27.351Z,7.80
2023-02-21T20:45:54.774Z,7.80
2023-02-21T20:48:25.387Z,7.80
2023-02-21T20:50:53.037Z,7.80
2023-02-21T20:53:19.889Z,7.80
2023-02-21T20:55:46.607Z,7.70
2023-02-21T20:58:13.277Z,7.70
2023-02-21T21:00:40.319Z,7.70
2023-02-21T21:03:09.310Z,7.70
2023-02-21T21:05:36.021Z,7.70
2023-02-21T21:08:02.672Z,7.70
2023-02-21T21:10:29.368Z,7.70
2023-02-21T21:12:56.828Z,7.70
2023-02-21T21:15:23.730Z,7.70
2023-02-21T21:17:50.392Z,7.70
2023-02-21T21:20:19.706Z,7.70
2023-02-21T21:22:46.996Z,7.60
2023-02-21T21:25:14.529Z,7.60
2023-02-21T21:27:42.401Z,7.60
2023-02-21T21:30:10.901Z,7.60
2023-02-21T21:32:37.620Z,7.60
2023-02-21T21:35:07.402Z,7.60
2023-02-21T21:37:35.330Z,7.60
2023-02-21T21:40:16.059Z,7.60
2023-02-21T21:42:44.948Z,7.60
2023-02-21T21:45:18.391Z,7.60
2023-02-21T21:47:46.724Z,7.60
2023-02-21T21:50:15.576Z,7.60
2023-02-21T21:52:44.238Z,7.60
2023-02-21T21:55:20.407Z,7.60
2023-02-21T21:57:53.245Z,7.60
2023-02-21T22:00:25.995Z,7.60
2023-02-21T22:02:57.221Z,7.70
2023-02-21T22:05:30.282Z,7.70
2023-02-21T22:07:58.088Z,7.80
2023-02-21T22:10:26.024Z,7.80
2023-02-21T22:12:54.118Z,7.80
2023-02-21T22:15:25.440Z,7.80
2023-02-21T22:17:52.801Z,7.90
2023-02-21T22:20:28.298Z,7.90
2023-02-21T22:22:58.614Z,7.80
2023-02-21T22:25:27.719Z,7.80
2023-02-21T22:27:54.472Z,7.90
2023-02-21T22:30:22.197Z,7.90
2023-02-21T22:32:49.210Z,7.90
2023-02-21T22:35:18.240Z,7.80
2023-02-21T22:37:52.778Z,7.90
2023-02-21T22:40:24.672Z,7.90
2023-02-21T22:42:52.519Z,8.00
2023-02-21T22:45:21.878Z,8.00
2023-02-21T22:47:50.122Z,8.10
2023-02-21T22:50:20.209Z,8.20
2023-02-21T22:52:54.962Z,8.20
2023-02-21T22:55:25.631Z,8.30
2023-02-21T22:57:53.817Z,8.30
2023-02-21T23:00:23.771Z,8.40
2023-02-21T23:02:51.665Z,8.40
2023-02-21T23:05:21.567Z,8.40
2023-02-21T23:07:50.041Z,8.40
2023-02-21T23:10:28.245Z,8.50
2023-02-21T23:12:58.368Z,8.40
2023-02-21T23:15:26.344Z,8.50
2023-02-21T23:17:53.798Z,8.50
2023-02-21T23:20:22.774Z,8.50
2023-02-21T23:22:51.438Z,8.50
2023-02-21T23:25:34.897Z,8.60
2023-02-21T23:28:04.886Z,8.60
2023-02-21T23:30:41.010Z,8.60
2023-02-21T23:33:16.501Z,8.70
2023-02-21T23:35:50.514Z,8.70
2023-02-21T23:38:22.828Z,8.70
2023-02-21T23:40:56.055Z,8.80
2023-02-21T23:43:29.364Z,8.80
2023-02-21T23:46:00.308Z,8.80
2023-02-21T23:48:29.361Z,8.80
2023-02-21T23:50:58.000Z,8.90
2023-02-21T23:53:26.838Z,8.90
2023-02-21T23:56:00.257Z,8.90
2023-02-21T23:58:31.522Z,8.90
